Horatio, South Carolina
Current Conditions -  °F | °C
As of 8:58 PM on Friday 19 Dec 2014 (Local Time) from KSSC Reporting Station
Clear Clear  
Wind Chill:   Ceiling: Unl
Heat Index:   Visibility: 10mi
Dew Point:   Wind: 5mph
Humidity: 66%   Direction: 30°NNE
Pressure: 30.14"   Gusts: NA
Location:  34.02°N, 80.57°W
Report Text: KSSC 200158Z AUTO 03004KT 10SM CLR 08/02 A3014 RMK AO2 CIG 160 RWY22 SLP209 T00770018 $
Loading
Personal Weather Stations






























Interactive Weather Map New forecast layout! Learn more

10-Day Weather Forecast

Advertisements
Track Severe Weather on mobile